Time;durP1;ratioP1;P1;durP2;ratioP2;P2;SDS_P1;SDS_P2;PMS_P1;PMS_P2;Temp;Humidity;BMP_temperature;BMP_pressure;BME280_temperature;BME280_humidity;BME280_pressure;Samples;Min_cycle;Max_cycle;Signal;HPM_P1;HPM_P2
2021/08/28 00:02:24;;;;;;;;;;;;;;;17.36;84.33;99756.31;4983647;28;19960;-77
2021/08/28 00:04:52;;;;;;;;;;;;;;;13.35;96.19;99762.69;4986142;28;19921;-91
2021/08/28 03:16:09;;;;;;;;;;;;;;;5.97;91.81;99750.16;4976347;28;19937;-87
2021/08/28 03:18:36;;;;;;;;;;;;;;;5.90;91.86;99759.03;4986284;28;20284;-88
2021/08/28 03:21:01;;;;;;;;;;;;;;;5.97;91.97;99758.91;4985474;28;19929;-88
2021/08/28 03:23:28;;;;;;;;;;;;;;;6.02;91.67;99755.31;4985183;28;19918;-87
2021/08/28 03:25:53;;;;;;;;;;;;;;;6.08;92.75;99757.75;4986861;28;20004;-88
2021/08/28 03:28:19;;;;;;;;;;;;;;;6.05;93.91;99757.81;4984795;28;20009;-90
2021/08/28 03:30:48;;;;;;;;;;;;;;;6.07;94.90;99761.31;5010330;28;19918;-91
2021/08/28 03:33:15;;;;;;;;;;;;;;;6.15;98.34;99748.81;4984396;28;19921;-91
2021/08/28 03:35:43;;;;;;;;;;;;;;;6.39;100.00;99746.47;4985273;28;19929;-93
2021/08/28 03:38:09;;;;;;;;;;;;;;;6.42;100.00;99741.13;4992830;28;19921;-92
2021/08/28 03:40:35;;;;;;;;;;;;;;;6.44;99.91;99739.31;4985478;28;19918;-91
2021/08/28 03:43:00;;;;;;;;;;;;;;;6.26;99.36;99736.25;4985514;28;19922;-92
2021/08/28 03:45:29;;;;;;;;;;;;;;;6.30;99.56;99731.75;4986436;28;19918;-93
2021/08/28 03:47:55;;;;;;;;;;;;;;;6.36;100.00;99740.34;4985370;28;20341;-92
2021/08/28 03:50:20;;;;;;;;;;;;;;;6.49;100.00;99743.56;4984159;28;19972;-93
2021/08/28 03:52:46;;;;;;;;;;;;;;;6.53;100.00;99755.72;4985199;28;19922;-93
2021/08/28 03:55:11;;;;;;;;;;;;;;;6.51;100.00;99756.66;4984971;28;19930;-93
2021/08/28 03:57:37;;;;;;;;;;;;;;;6.50;100.00;99757.56;4983795;28;19925;-91
2021/08/28 04:00:03;;;;;;;;;;;;;;;6.41;100.00;99757.81;4984716;28;20407;-90
2021/08/28 04:02:28;;;;;;;;;;;;;;;6.40;99.83;99759.59;4993081;28;20324;-92
2021/08/28 04:04:54;;;;;;;;;;;;;;;6.43;99.81;99764.78;4984769;28;19918;-92
2021/08/28 04:07:19;;;;;;;;;;;;;;;6.36;100.00;99758.78;4985246;28;20356;-90
2021/08/28 04:09:44;;;;;;;;;;;;;;;6.95;100.00;99754.56;4983479;28;20289;-88
2021/08/28 04:12:09;;;;;;;;;;;;;;;6.92;100.00;99752.03;4984730;28;19918;-89
2021/08/28 04:14:37;;;;;;;;;;;;;;;6.76;100.00;99756.84;4983138;28;20460;-92
2021/08/28 04:17:03;;;;;;;;;;;;;;;6.61;100.00;99755.50;4983194;28;19941;-91
2021/08/28 04:19:28;;;;;;;;;;;;;;;6.53;100.00;99758.34;4986148;28;20005;-92
2021/08/28 04:21:56;;;;;;;;;;;;;;;6.49;100.00;99754.09;4984266;28;19928;-91
2021/08/28 04:24:21;;;;;;;;;;;;;;;6.41;100.00;99755.19;4985535;28;19927;-87
2021/08/28 04:26:49;;;;;;;;;;;;;;;6.41;100.00;99760.44;4983839;28;19925;-90
2021/08/28 04:29:16;;;;;;;;;;;;;;;6.34;100.00;99759.75;4983246;28;20284;-91
2021/08/28 04:31:42;;;;;;;;;;;;;;;6.30;100.00;99758.97;4983632;28;19924;-91
2021/08/28 04:34:10;;;;;;;;;;;;;;;6.27;99.93;99756.41;4985288;28;19921;-91
2021/08/28 04:36:42;;;;;;;;;;;;;;;6.23;99.94;99752.13;4984600;28;19928;-92
2021/08/28 04:39:18;;;;;;;;;;;;;;;;;;;;;
2021/08/28 04:41:43;;;;;;;;;;;;;;;6.09;99.86;99754.22;4986548;28;19924;-92
2021/08/28 04:44:09;;;;;;;;;;;;;;;6.13;100.00;99746.22;4981768;28;19993;-93
2021/08/28 04:46:34;;;;;;;;;;;;;;;6.12;99.51;99743.63;4984278;28;20344;-91
2021/08/28 04:49:02;;;;;;;;;;;;;;;6.10;99.10;99741.03;4985651;28;19918;-93
2021/08/28 04:51:29;;;;;;;;;;;;;;;6.20;98.39;99744.31;4984082;28;20179;-91
2021/08/28 04:53:57;;;;;;;;;;;;;;;6.12;98.22;99746.25;4983631;28;20423;-91
2021/08/28 04:56:27;;;;;;;;;;;;;;;6.00;98.44;99756.19;4984605;28;20029;-90
2021/08/28 07:46:15;;;;;;;;;;;;;;;5.59;96.63;99767.66;5612387;23;19950;-86
2021/08/28 07:48:40;;;;;;;;;;;;;;;5.63;96.45;99769.31;4983395;28;19926;-89
2021/08/28 07:51:05;;;;;;;;;;;;;;;5.71;96.03;99766.50;4985933;28;19965;-86
2021/08/28 07:53:30;;;;;;;;;;;;;;;5.68;95.95;99774.47;4985742;28;19922;-90
2021/08/28 07:55:56;;;;;;;;;;;;;;;5.68;96.75;99771.81;4984229;28;19925;-89
2021/08/28 07:58:21;;;;;;;;;;;;;;;5.64;95.94;99774.53;4985995;28;19922;-90
2021/08/28 08:00:46;;;;;;;;;;;;;;;5.56;96.43;99780.88;4983826;28;19926;-92
2021/08/28 08:03:12;;;;;;;;;;;;;;;5.54;96.83;99778.28;4968935;28;19969;-87
2021/08/28 08:05:37;;;;;;;;;;;;;;;5.63;96.25;99779.81;4984865;28;20353;-86
2021/08/28 08:08:02;;;;;;;;;;;;;;;5.64;96.55;99779.78;4967969;28;20380;-90
2021/08/28 08:10:28;;;;;;;;;;;;;;;5.72;96.61;99786.66;4984573;28;19920;-87
2021/08/28 08:12:53;;;;;;;;;;;;;;;5.69;96.26;99787.56;4985019;28;19972;-90
2021/08/28 08:15:19;;;;;;;;;;;;;;;5.72;96.90;99784.03;4984509;28;19937;-85
2021/08/28 08:17:45;;;;;;;;;;;;;;;5.71;96.76;99787.53;4985001;28;20408;-90
2021/08/28 08:20:10;;;;;;;;;;;;;;;5.70;96.88;99783.19;4968551;28;19922;-87
2021/08/28 08:22:36;;;;;;;;;;;;;;;5.74;96.95;99782.22;4986314;28;19925;-86
2021/08/28 08:25:01;;;;;;;;;;;;;;;5.67;96.18;99780.63;4985229;28;19929;-88
2021/08/28 08:27:26;;;;;;;;;;;;;;;5.73;96.51;99773.47;4966968;28;19918;-86
2021/08/28 08:29:52;;;;;;;;;;;;;;;5.78;96.57;99770.72;4984450;28;19922;-85
2021/08/28 08:32:17;;;;;;;;;;;;;;;5.76;96.62;99773.41;4984235;28;19922;-85
2021/08/28 08:34:42;;;;;;;;;;;;;;;5.80;96.58;99777.66;4967340;28;19925;-86
2021/08/28 08:37:08;;;;;;;;;;;;;;;5.68;97.10;99771.81;4991645;28;19944;-86
2021/08/28 08:39:33;;;;;;;;;;;;;;;5.71;97.61;99771.75;4985859;28;20302;-89
2021/08/28 08:41:59;;;;;;;;;;;;;;;5.66;97.49;99776.28;4984378;28;19965;-86
2021/08/28 08:44:25;;;;;;;;;;;;;;;5.72;98.04;99773.50;4967204;28;19918;-89
2021/08/28 08:46:51;;;;;;;;;;;;;;;5.79;97.21;99772.44;4982441;28;19930;-85
2021/08/28 08:49:17;;;;;;;;;;;;;;;5.72;97.63;99770.88;4984604;28;20388;-86
2021/08/28 08:51:44;;;;;;;;;;;;;;;5.74;97.58;99776.94;4966624;28;20373;-86
2021/08/28 08:54:09;;;;;;;;;;;;;;;5.75;97.28;99778.69;4985010;28;19924;-86
2021/08/28 08:56:35;;;;;;;;;;;;;;;5.78;97.45;99781.25;4984018;28;20012;-86
2021/08/28 08:59:01;;;;;;;;;;;;;;;5.74;97.38;99777.81;4966648;28;19922;-88
2021/08/28 09:01:27;;;;;;;;;;;;;;;5.67;97.57;99778.00;4983745;28;19922;-85
2021/08/28 09:03:54;;;;;;;;;;;;;;;5.73;97.19;99778.72;4983750;28;19941;-93
2021/08/28 09:06:19;;;;;;;;;;;;;;;5.71;96.63;99790.16;4984040;28;19928;-86
2021/08/28 09:08:45;;;;;;;;;;;;;;;5.79;96.55;99782.97;4983535;28;20304;-85
2021/08/28 09:11:26;;;;;;;;;;;;;;;5.78;96.70;99786.50;4984891;28;20354;-91
2021/08/28 09:14:11;;;;;;;;;;;;;;;5.63;96.84;99783.34;4983659;28;19945;-85
2021/08/28 09:16:36;;;;;;;;;;;;;;;5.79;97.08;99783.84;4981902;28;19924;-85
2021/08/28 09:19:02;;;;;;;;;;;;;;;5.79;96.71;99780.34;4984187;28;20012;-85
2021/08/28 09:21:31;;;;;;;;;;;;;;;5.86;96.53;99784.56;4983956;28;20324;-85
2021/08/28 09:24:01;;;;;;;;;;;;;;;5.77;97.05;99782.13;4983807;28;19922;-85
2021/08/28 09:26:27;;;;;;;;;;;;;;;5.80;96.99;99784.69;4983465;28;20016;-86
2021/08/28 09:28:54;;;;;;;;;;;;;;;5.72;97.72;99792.75;4967105;28;20403;-85
2021/08/28 09:31:34;;;;;;;;;;;;;;;5.82;97.60;99799.56;4983739;28;19964;-88
2021/08/28 09:34:18;;;;;;;;;;;;;;;5.88;97.81;99790.63;4983581;28;19952;-87
2021/08/28 09:36:44;;;;;;;;;;;;;;;5.79;97.98;99793.47;4984606;28;19924;-89
2021/08/28 09:39:09;;;;;;;;;;;;;;;5.79;98.47;99783.84;4966376;28;19926;-93
2021/08/28 09:41:36;;;;;;;;;;;;;;;5.82;98.08;99789.03;4983328;28;19929;-86
2021/08/28 09:44:08;;;;;;;;;;;;;;;5.87;98.30;99794.19;4983829;28;19922;-86
2021/08/28 09:46:33;;;;;;;;;;;;;;;5.87;98.43;99796.81;4982080;28;19930;-86
2021/08/28 09:49:00;;;;;;;;;;;;;;;5.74;98.49;99790.09;4983364;28;19919;-84
2021/08/28 09:51:25;;;;;;;;;;;;;;;5.82;98.59;99788.16;4983493;28;19918;-85
2021/08/28 09:53:58;;;;;;;;;;;;;;;5.77;98.84;99796.13;4982982;28;19970;-86
2021/08/28 09:56:24;;;;;;;;;;;;;;;5.80;98.78;99789.97;4964370;28;19976;-86
2021/08/28 09:58:50;;;;;;;;;;;;;;;5.87;98.53;99781.03;4983059;28;19914;-85
2021/08/28 10:01:19;;;;;;;;;;;;;;;5.81;98.53;99789.06;4982046;28;20352;-90
2021/08/28 10:03:55;;;;;;;;;;;;;;;5.84;98.36;99791.63;4983515;28;19921;-85
2021/08/28 10:06:21;;;;;;;;;;;;;;;5.89;98.17;99781.84;4965691;28;19921;-85
2021/08/28 10:08:47;;;;;;;;;;;;;;;5.68;99.31;99777.09;4982656;28;19917;-84
2021/08/28 10:11:12;;;;;;;;;;;;;;;5.82;99.09;99777.63;4982760;28;19922;-83
2021/08/28 10:13:38;;;;;;;;;;;;;;;5.86;98.90;99776.66;4982579;28;20012;-84
2021/08/28 10:16:04;;;;;;;;;;;;;;;5.88;98.63;99771.38;4981984;28;19968;-84
2021/08/28 10:18:30;;;;;;;;;;;;;;;5.91;99.40;99773.94;4982813;28;19995;-85
2021/08/28 10:20:59;;;;;;;;;;;;;;;5.87;99.13;99767.91;4983076;28;19926;-84
2021/08/28 10:23:29;;;;;;;;;;;;;;;5.85;98.96;99761.78;4982961;28;20012;-86
2021/08/28 10:25:54;;;;;;;;;;;;;;;5.87;99.98;99770.53;4967387;28;20270;-84
2021/08/28 10:28:20;;;;;;;;;;;;;;;5.90;99.92;99764.31;4982653;28;20017;-85
2021/08/28 10:30:45;;;;;;;;;;;;;;;5.88;100.00;99761.72;4981081;28;19930;-84
2021/08/28 10:33:11;;;;;;;;;;;;;;;5.91;99.73;99766.03;4983050;28;19929;-85
2021/08/28 10:35:37;;;;;;;;;;;;;;;5.83;99.27;99768.84;4983604;28;19953;-91
2021/08/28 10:38:02;;;;;;;;;;;;;;;5.79;99.44;99762.81;4966034;28;19925;-90
2021/08/28 10:40:32;;;;;;;;;;;;;;;5.77;99.35;99758.47;4983223;28;19980;-86
2021/08/28 10:42:59;;;;;;;;;;;;;;;5.82;99.22;99765.38;4982976;28;19918;-87
2021/08/28 10:45:26;;;;;;;;;;;;;;;5.74;98.48;99759.41;4980711;28;20297;-86
2021/08/28 10:47:56;;;;;;;;;;;;;;;5.79;98.88;99760.19;4962242;28;20417;-87
2021/08/28 10:50:21;;;;;;;;;;;;;;;5.88;98.61;99760.84;4963610;28;20366;-90
2021/08/28 10:52:48;;;;;;;;;;;;;;;5.88;98.54;99756.44;4963502;28;19920;-84
2021/08/28 10:55:14;;;;;;;;;;;;;;;5.87;98.87;99762.63;4963561;28;19923;-84
2021/08/28 10:57:40;;;;;;;;;;;;;;;5.81;98.32;99757.50;4963721;28;19921;-84
2021/08/28 11:00:13;;;;;;;;;;;;;;;5.84;98.24;99770.59;4963169;28;20385;-85
2021/08/28 11:02:48;;;;;;;;;;;;;;;5.91;99.17;99772.16;4963548;28;20289;-84
2021/08/28 11:05:14;;;;;;;;;;;;;;;5.90;97.98;99765.16;4963255;28;19935;-84
2021/08/28 11:07:43;;;;;;;;;;;;;;;5.89;98.51;99766.09;4963707;28;19942;-91
2021/08/28 11:10:09;;;;;;;;;;;;;;;5.95;99.30;99754.53;4961792;28;20131;-84
2021/08/28 11:12:49;;;;;;;;;;;;;;;5.96;99.62;99758.91;4963301;28;20390;-88
2021/08/28 11:15:24;;;;;;;;;;;;;;;5.98;100.00;99750.13;4962129;28;19977;-85
2021/08/28 11:17:50;;;;;;;;;;;;;;;5.92;100.00;99752.84;4964693;28;19965;-93
2021/08/28 11:20:24;;;;;;;;;;;;;;;5.94;100.00;99758.94;4962452;28;19934;-85
2021/08/28 11:22:49;;;;;;;;;;;;;;;5.97;100.00;99764.16;4963226;28;19942;-87
2021/08/28 11:25:15;;;;;;;;;;;;;;;5.93;100.00;99753.72;4963239;28;19922;-87
2021/08/28 11:27:45;;;;;;;;;;;;;;;5.88;100.00;99761.72;4963561;28;19923;-85
2021/08/28 11:30:11;;;;;;;;;;;;;;;5.88;100.00;99752.97;4963423;28;19978;-84
2021/08/28 11:32:37;;;;;;;;;;;;;;;5.77;100.00;99758.47;4964605;28;19918;-89
2021/08/28 11:35:03;;;;;;;;;;;;;;;5.89;100.00;99746.78;4965959;28;19926;-84
2021/08/28 11:37:28;;;;;;;;;;;;;;;5.88;100.00;99742.44;4966003;28;19929;-88
2021/08/28 11:40:05;;;;;;;;;;;;;;;5.86;100.00;99753.00;4965159;28;20369;-89
2021/08/28 11:42:33;;;;;;;;;;;;;;;5.90;100.00;99733.59;4989130;28;20393;-91
2021/08/28 11:44:59;;;;;;;;;;;;;;;5.99;100.00;99727.28;4966505;28;19922;-87
2021/08/28 11:47:26;;;;;;;;;;;;;;;5.89;100.00;99745.03;4974059;28;19937;-84
2021/08/28 11:49:53;;;;;;;;;;;;;;;5.91;100.00;99734.50;4985331;28;19940;-91
2021/08/28 11:52:18;;;;;;;;;;;;;;;5.96;100.00;99738.75;4967929;28;20373;-87
2021/08/28 11:54:44;;;;;;;;;;;;;;;6.03;100.00;99728.06;4984160;28;20013;-85
2021/08/28 11:57:10;;;;;;;;;;;;;;;5.95;100.00;99729.13;4984761;28;19953;-86
2021/08/28 11:59:38;;;;;;;;;;;;;;;5.90;100.00;99732.75;4985295;28;20285;-84
2021/08/28 12:02:04;;;;;;;;;;;;;;;5.93;100.00;99728.28;4983838;28;19922;-84
2021/08/28 12:04:32;;;;;;;;;;;;;;;5.95;100.00;99718.59;4984711;28;19940;-89
2021/08/28 12:06:57;;;;;;;;;;;;;;;5.98;100.00;99720.28;4985116;28;19918;-90
2021/08/28 12:09:23;;;;;;;;;;;;;;;5.96;99.11;99720.34;4985132;28;20330;-85
2021/08/28 12:11:50;;;;;;;;;;;;;;;5.90;99.46;99725.72;4984755;28;20280;-84
2021/08/28 12:14:16;;;;;;;;;;;;;;;5.91;99.22;99724.81;4984839;28;19914;-87
2021/08/28 12:16:42;;;;;;;;;;;;;;;5.94;98.83;99716.84;4984100;28;19922;-88
2021/08/28 12:19:09;;;;;;;;;;;;;;;5.90;99.34;99720.44;4984915;28;20266;-86
2021/08/28 12:21:38;;;;;;;;;;;;;;;5.99;99.07;99720.25;4984764;28;19918;-91
2021/08/28 12:24:10;;;;;;;;;;;;;;;6.10;99.54;99719.16;4985962;28;20269;-85
2021/08/28 12:26:36;;;;;;;;;;;;;;;6.05;98.76;99721.00;4968094;28;19918;-92
2021/08/28 12:29:02;;;;;;;;;;;;;;;6.02;99.19;99716.69;4984945;28;20370;-88
2021/08/28 12:31:30;;;;;;;;;;;;;;;6.06;98.77;99717.47;4983095;28;19961;-93
2021/08/28 12:33:55;;;;;;;;;;;;;;;6.05;99.15;99711.38;4984228;28;19922;-84
2021/08/28 12:36:25;;;;;;;;;;;;;;;5.97;99.86;99710.69;4985451;28;20299;-86
2021/08/28 12:38:59;;;;;;;;;;;;;;;5.97;100.00;99711.56;4967221;28;19973;-84
2021/08/28 12:41:24;;;;;;;;;;;;;;;6.02;100.00;99711.44;4985234;28;20293;-86
2021/08/28 12:43:50;;;;;;;;;;;;;;;6.07;100.00;99708.69;4984458;28;19929;-84
2021/08/28 12:46:15;;;;;;;;;;;;;;;6.07;100.00;99711.31;4982390;28;19925;-89
2021/08/28 12:48:40;;;;;;;;;;;;;;;6.04;100.00;99711.41;4984805;28;19928;-84
2021/08/28 12:51:09;;;;;;;;;;;;;;;6.05;100.00;99710.47;4983841;28;19924;-85
2021/08/28 12:53:38;;;;;;;;;;;;;;;6.04;100.00;99703.50;4984474;28;20013;-84
2021/08/28 12:56:06;;;;;;;;;;;;;;;5.97;100.00;99708.94;4983295;28;20389;-84
2021/08/28 12:58:32;;;;;;;;;;;;;;;5.98;100.00;99710.66;4984739;28;19922;-85
2021/08/28 13:01:05;;;;;;;;;;;;;;;6.03;99.39;99707.03;4983278;28;20284;-87
2021/08/28 13:03:31;;;;;;;;;;;;;;;5.98;99.39;99715.94;4984010;28;20369;-93
2021/08/28 13:05:57;;;;;;;;;;;;;;;6.07;99.14;99717.44;4984501;28;19961;-84
2021/08/28 13:08:33;;;;;;;;;;;;;;;5.99;99.00;99722.88;4982891;28;20416;-87
2021/08/28 13:11:18;;;;;;;;;;;;;;;5.93;99.89;99717.75;4981606;28;20008;-85
2021/08/28 13:13:58;;;;;;;;;;;;;;;5.97;100.00;99729.97;4984062;28;19922;-90
2021/08/28 13:16:24;;;;;;;;;;;;;;;5.91;100.00;99724.81;4981294;28;20362;-90
2021/08/28 13:19:08;;;;;;;;;;;;;;;6.04;100.00;99719.28;4984946;28;19926;-93
2021/08/28 13:21:34;;;;;;;;;;;;;;;6.05;100.00;99721.00;4985400;28;19929;-85
2021/08/28 13:24:07;;;;;;;;;;;;;;;5.99;100.00;99717.63;4984620;28;19922;-88
2021/08/28 13:26:32;;;;;;;;;;;;;;;5.96;100.00;99720.34;4984370;28;19914;-84
2021/08/28 13:28:58;;;;;;;;;;;;;;;6.04;100.00;99719.28;4965288;28;19926;-84
2021/08/28 13:31:23;;;;;;;;;;;;;;;6.04;100.00;99720.16;4983746;28;19922;-85
2021/08/28 13:33:55;;;;;;;;;;;;;;;6.03;100.00;99715.81;4985831;28;19925;-85
2021/08/28 13:36:21;;;;;;;;;;;;;;;6.06;100.00;99715.69;4982268;28;19919;-93
2021/08/28 13:38:46;;;;;;;;;;;;;;;6.10;100.00;99709.47;4984884;28;19920;-85
2021/08/28 13:41:13;;;;;;;;;;;;;;;6.18;100.00;99714.53;4968796;28;19922;-84
2021/08/28 13:43:38;;;;;;;;;;;;;;;6.20;100.00;99717.13;4965080;28;20351;-91
2021/08/28 13:46:03;;;;;;;;;;;;;;;6.16;100.00;99713.72;4982326;28;20013;-85
2021/08/28 13:48:29;;;;;;;;;;;;;;;6.11;100.00;99711.22;4984375;28;20341;-92
2021/08/28 13:50:54;;;;;;;;;;;;;;;6.14;100.00;99713.75;4984191;28;20137;-85
2021/08/28 13:53:20;;;;;;;;;;;;;;;6.21;100.00;99705.69;4986819;28;20336;-87
2021/08/28 13:55:45;;;;;;;;;;;;;;;6.11;100.00;99711.22;4966490;28;19926;-89
2021/08/28 13:58:11;;;;;;;;;;;;;;;6.14;100.00;99712.88;4969155;28;20285;-89
2021/08/28 14:00:37;;;;;;;;;;;;;;;6.12;100.00;99704.16;4982024;28;19922;-91
2021/08/28 14:03:02;;;;;;;;;;;;;;;6.20;100.00;99709.25;4984413;28;19964;-86
2021/08/28 14:05:27;;;;;;;;;;;;;;;6.17;100.00;99711.06;4965124;28;19934;-94
2021/08/28 14:07:53;;;;;;;;;;;;;;;6.11;100.00;99713.84;4983899;28;20402;-90
2021/08/28 14:10:19;;;;;;;;;;;;;;;6.11;100.00;99716.47;4965908;28;19921;-87
2021/08/28 14:12:44;;;;;;;;;;;;;;;6.14;100.00;99715.50;4982372;28;19918;-94
2021/08/28 14:15:10;;;;;;;;;;;;;;;6.19;100.00;99708.38;4983544;28;19922;-84
2021/08/28 14:17:36;;;;;;;;;;;;;;;6.16;100.00;99711.09;4985929;28;20274;-87
2021/08/28 14:20:02;;;;;;;;;;;;;;;6.18;100.00;99707.50;4983665;28;19918;-84
2021/08/28 14:22:27;;;;;;;;;;;;;;;6.20;100.00;99706.59;4983095;28;19922;-88
2021/08/28 14:24:53;;;;;;;;;;;;;;;6.09;100.00;99706.88;4983128;28;19925;-92
2021/08/28 14:27:18;;;;;;;;;;;;;;;6.15;100.00;99709.34;4987403;28;19961;-85
2021/08/28 14:29:43;;;;;;;;;;;;;;;6.18;100.00;99702.25;4988016;28;19918;-95
2021/08/28 14:32:10;;;;;;;;;;;;;;;10.42;100.00;99688.47;4981986;28;19981;-84
2021/08/28 14:34:35;;;;;;;;;;;;;;;7.92;100.00;99695.38;4982823;28;19944;-85
2021/08/28 14:37:01;;;;;;;;;;;;;;;7.08;100.00;99700.63;4982870;28;20476;-84
2021/08/28 14:39:26;;;;;;;;;;;;;;;6.88;100.00;99695.94;4982302;28;19918;-83
2021/08/28 14:41:51;;;;;;;;;;;;;;;6.65;100.00;99693.09;4982394;28;19996;-85
2021/08/28 14:44:17;;;;;;;;;;;;;;;6.60;100.00;99701.13;4983528;28;19918;-82
2021/08/28 14:46:43;;;;;;;;;;;;;;;6.53;100.00;99694.31;4965164;28;19926;-85
2021/08/28 14:49:10;;;;;;;;;;;;;;;6.48;99.79;99694.44;4981713;28;19918;-83
2021/08/28 14:51:36;;;;;;;;;;;;;;;6.38;99.91;99692.94;4984410;28;20285;-83
2021/08/28 14:54:01;;;;;;;;;;;;;;;6.41;99.96;99686.75;4982558;28;19919;-83
2021/08/28 14:56:26;;;;;;;;;;;;;;;6.32;99.53;99688.72;4984068;28;19918;-83
2021/08/28 14:58:52;;;;;;;;;;;;;;;6.38;99.25;99692.09;4982380;28;20353;-82
2021/08/28 15:01:17;;;;;;;;;;;;;;;6.36;98.72;99690.34;4963814;28;19964;-83
2021/08/28 15:03:42;;;;;;;;;;;;;;;6.33;98.61;99693.09;4965308;28;19929;-82
2021/08/28 15:06:08;;;;;;;;;;;;;;;6.25;99.50;99692.41;4983721;28;20005;-83
2021/08/28 15:08:33;;;;;;;;;;;;;;;6.24;99.25;99695.97;4968620;28;20413;-82
2021/08/28 15:10:58;;;;;;;;;;;;;;;6.31;98.69;99694.03;4968463;28;19918;-83
2021/08/28 15:13:24;;;;;;;;;;;;;;;6.34;99.74;99700.06;4968781;28;20017;-82
2021/08/28 15:15:49;;;;;;;;;;;;;;;6.32;98.77;99699.25;4987093;28;19969;-82
2021/08/28 15:18:14;;;;;;;;;;;;;;;6.41;99.20;99705.16;4968525;28;19984;-82
2021/08/28 15:20:39;;;;;;;;;;;;;;;6.32;98.90;99709.78;4967353;28;19921;-88
2021/08/28 15:23:05;;;;;;;;;;;;;;;6.28;98.79;99713.38;4968830;28;19929;-88
2021/08/28 15:25:30;;;;;;;;;;;;;;;6.23;98.69;99720.53;4969226;28;20329;-82
2021/08/28 15:27:55;;;;;;;;;;;;;;;6.21;98.97;99721.47;4985739;28;19925;-89
2021/08/28 15:30:21;;;;;;;;;;;;;;;6.23;98.86;99725.81;4964885;28;19929;-84
2021/08/28 15:32:46;;;;;;;;;;;;;;;6.18;98.68;99728.56;4985707;28;19913;-84
2021/08/28 15:35:11;;;;;;;;;;;;;;;6.20;99.44;99725.88;4968129;28;20435;-84
2021/08/28 15:37:37;;;;;;;;;;;;;;;6.20;98.88;99728.50;4968165;28;19953;-84
2021/08/28 15:40:03;;;;;;;;;;;;;;;6.25;99.15;99728.41;4985930;28;20349;-83
2021/08/28 15:42:29;;;;;;;;;;;;;;;6.28;98.95;99725.69;4992567;28;19922;-90
2021/08/28 15:44:54;;;;;;;;;;;;;;;6.24;99.17;99727.53;4985949;28;19922;-83
2021/08/28 15:47:20;;;;;;;;;;;;;;;6.31;99.31;99731.72;4983825;28;20000;-84
2021/08/28 15:49:45;;;;;;;;;;;;;;;6.24;99.72;99716.13;4985327;28;20259;-84
2021/08/28 15:52:11;;;;;;;;;;;;;;;6.22;100.00;99718.81;4985591;28;19920;-83
2021/08/28 15:54:36;;;;;;;;;;;;;;;6.25;99.49;99724.00;4967697;28;19929;-87
2021/08/28 15:57:02;;;;;;;;;;;;;;;6.22;99.39;99721.44;4985761;28;20366;-89
2021/08/28 15:59:27;;;;;;;;;;;;;;;6.23;99.17;99723.16;4985467;28;20440;-83
2021/08/28 16:01:52;;;;;;;;;;;;;;;6.11;99.46;99719.09;4983547;28;19918;-83
2021/08/28 16:04:17;;;;;;;;;;;;;;;6.17;99.65;99725.97;4985282;28;19922;-88
2021/08/28 16:06:43;;;;;;;;;;;;;;;6.14;99.83;99723.41;4967501;28;20281;-81
2021/08/28 16:09:08;;;;;;;;;;;;;;;6.16;99.90;99730.38;4967391;28;20016;-83
2021/08/28 16:11:36;;;;;;;;;;;;;;;6.15;99.69;99730.41;4968008;28;19918;-83
2021/08/28 16:14:01;;;;;;;;;;;;;;;6.20;100.00;99736.41;4967727;28;19918;-82
2021/08/28 16:16:29;;;;;;;;;;;;;;;6.16;100.00;99734.78;4982941;28;19926;-84
2021/08/28 16:18:54;;;;;;;;;;;;;;;6.29;99.33;99738.81;4984683;28;20012;-85
2021/08/28 16:21:19;;;;;;;;;;;;;;;6.10;100.00;99735.78;4984866;28;20334;-85
2021/08/28 16:23:44;;;;;;;;;;;;;;;6.11;99.99;99739.25;4984504;28;19922;-88
2021/08/28 16:26:10;;;;;;;;;;;;;;;6.08;99.55;99748.13;4984539;28;19925;-84
2021/08/28 16:28:35;;;;;;;;;;;;;;;6.09;99.77;99739.31;4985122;28;19932;-83
2021/08/28 16:31:01;;;;;;;;;;;;;;;6.06;99.54;99749.03;4983597;28;19972;-83
2021/08/28 16:33:26;;;;;;;;;;;;;;;6.07;99.41;99748.16;4984270;28;20368;-83
2021/08/28 16:35:54;;;;;;;;;;;;;;;6.12;99.44;99741.00;4975088;28;19922;-84
2021/08/28 16:38:19;;;;;;;;;;;;;;;6.07;99.89;99746.38;4967643;28;19929;-84
2021/08/28 16:40:44;;;;;;;;;;;;;;;6.16;100.00;99750.56;4984137;28;19918;-84
2021/08/28 16:43:10;;;;;;;;;;;;;;;6.09;100.00;99751.59;4984277;28;20008;-83
2021/08/28 16:45:36;;;;;;;;;;;;;;;6.09;99.68;99749.81;4966054;28;20033;-86
2021/08/28 16:48:02;;;;;;;;;;;;;;;6.14;99.83;99752.34;4984456;28;19926;-82
2021/08/28 16:50:27;;;;;;;;;;;;;;;6.07;99.83;99750.78;4984090;28;19922;-88
2021/08/28 16:52:53;;;;;;;;;;;;;;;6.10;99.61;99751.56;4967376;28;19981;-83
2021/08/28 16:55:19;;;;;;;;;;;;;;;6.21;99.46;99748.66;4984565;28;19926;-87
2021/08/28 16:57:44;;;;;;;;;;;;;;;6.08;99.08;99747.22;4984990;28;19918;-82
2021/08/28 17:00:09;;;;;;;;;;;;;;;6.09;99.39;99736.66;4967081;28;19926;-83
2021/08/28 17:02:35;;;;;;;;;;;;;;;6.13;99.86;99745.38;4965264;28;19987;-86
2021/08/28 17:05:00;;;;;;;;;;;;;;;6.10;99.15;99742.81;4967953;28;19929;-83
2021/08/28 17:07:25;;;;;;;;;;;;;;;6.14;99.07;99752.34;4984705;28;19953;-88
2021/08/28 17:09:50;;;;;;;;;;;;;;;6.15;98.85;99752.31;4967567;28;19921;-83
2021/08/28 17:12:16;;;;;;;;;;;;;;;6.08;99.59;99755.13;4966286;28;19933;-82
2021/08/28 17:14:43;;;;;;;;;;;;;;;6.03;99.54;99759.63;4985715;28;20266;-85
2021/08/28 17:17:09;;;;;;;;;;;;;;;6.07;99.13;99756.91;4984194;28;20012;-84
2021/08/28 17:19:34;;;;;;;;;;;;;;;6.07;99.04;99762.16;4984422;28;20025;-83
2021/08/28 17:21:59;;;;;;;;;;;;;;;6.07;99.19;99758.69;4984613;28;19980;-84
2021/08/28 17:24:27;;;;;;;;;;;;;;;6.08;98.94;99761.28;4983196;28;20182;-83
2021/08/28 17:26:52;;;;;;;;;;;;;;;6.15;99.36;99754.09;4984562;28;19946;-85
2021/08/28 17:29:18;;;;;;;;;;;;;;;6.13;99.16;99759.38;4983270;28;19922;-84
2021/08/28 17:31:44;;;;;;;;;;;;;;;6.08;99.43;99756.00;4982559;28;19922;-85
2021/08/28 17:34:09;;;;;;;;;;;;;;;6.08;99.32;99763.00;4984010;28;19922;-83
2021/08/28 17:36:34;;;;;;;;;;;;;;;6.12;99.30;99759.41;4966603;28;19922;-83
2021/08/28 17:38:59;;;;;;;;;;;;;;;6.09;99.15;99762.13;4984686;28;19965;-84
2021/08/28 17:41:25;;;;;;;;;;;;;;;6.09;99.11;99770.03;4984214;28;20366;-87
2021/08/28 17:43:50;;;;;;;;;;;;;;;6.10;99.40;99767.34;4983404;28;19922;-87
2021/08/28 17:46:16;;;;;;;;;;;;;;;6.15;99.22;99777.75;4982441;28;19925;-83
2021/08/28 17:48:41;;;;;;;;;;;;;;;6.11;99.73;99778.72;4984465;28;19926;-85
2021/08/28 17:51:09;;;;;;;;;;;;;;;6.06;100.00;99770.09;4983065;28;19922;-83
2021/08/28 17:53:34;;;;;;;;;;;;;;;6.13;100.00;99769.06;4983461;28;20042;-83
2021/08/28 17:56:00;;;;;;;;;;;;;;;6.21;99.44;99774.97;4983211;28;20048;-87
2021/08/28 17:58:25;;;;;;;;;;;;;;;6.15;99.64;99775.13;4966324;28;19921;-84
2021/08/28 18:00:50;;;;;;;;;;;;;;;6.18;99.93;99775.06;4980938;28;19930;-86
2021/08/28 18:03:15;;;;;;;;;;;;;;;6.11;100.00;99773.47;4984160;28;19970;-87
2021/08/28 18:05:41;;;;;;;;;;;;;;;6.12;100.00;99775.19;4966069;28;20450;-87
2021/08/28 18:08:06;;;;;;;;;;;;;;;6.17;100.00;99783.84;4982799;28;19928;-88
2021/08/28 18:10:32;;;;;;;;;;;;;;;6.17;100.00;99770.69;4982835;28;19927;-84
2021/08/28 18:12:57;;;;;;;;;;;;;;;6.14;100.00;99776.03;4984058;28;19926;-86
2021/08/28 18:15:22;;;;;;;;;;;;;;;6.13;99.93;99775.16;4981991;28;20008;-84
2021/08/28 18:17:47;;;;;;;;;;;;;;;6.23;99.45;99772.31;4985637;28;19934;-83
2021/08/28 18:20:13;;;;;;;;;;;;;;;6.14;99.54;99773.38;4984032;28;19922;-87
2021/08/28 18:22:39;;;;;;;;;;;;;;;6.07;99.75;99785.84;4984643;28;20008;-85
2021/08/28 18:25:05;;;;;;;;;;;;;;;6.02;99.79;99778.97;4982711;28;19925;-85
2021/08/28 18:27:30;;;;;;;;;;;;;;;6.10;100.00;99780.50;4983051;28;19918;-84
2021/08/28 18:29:55;;;;;;;;;;;;;;;6.10;99.34;99792.81;4983198;28;19981;-86
2021/08/28 18:32:20;;;;;;;;;;;;;;;6.09;100.00;99796.31;4983325;28;20373;-85
2021/08/28 18:34:46;;;;;;;;;;;;;;;6.15;99.96;99798.81;4982769;28;20389;-86
2021/08/28 18:37:11;;;;;;;;;;;;;;;6.14;99.26;99795.31;4967236;28;20289;-87
2021/08/28 18:39:36;;;;;;;;;;;;;;;6.08;99.36;99805.09;4966299;28;19953;-86
2021/08/28 18:42:02;;;;;;;;;;;;;;;6.09;99.58;99797.19;4987142;28;19994;-86
2021/08/28 18:44:28;;;;;;;;;;;;;;;6.06;99.30;99804.28;4985280;28;20341;-86
2021/08/28 18:46:53;;;;;;;;;;;;;;;6.08;99.49;99806.00;4968440;28;19929;-85
2021/08/28 18:49:19;;;;;;;;;;;;;;;6.07;99.07;99812.16;4968616;28;19926;-85